Pompton Lakes, NJ (07442)

3:41 PM EST on March 06, 2015 (GMT -0500)
APRSWXNET Wayne NJ US | Change Station
CLOSE
Current Station
Personal Weather Station
Location: Pompton Lakes, NJ
Elevation: 275 ft
Nearby Weather Stations

Elev 275 ft 41.01 °N, 74.27 °W | Updated 50 minutes ago

Clear
Clear
26 °F
Feels Like 26 °F
N
2
Wind Variable Wind from South
Gusts 9.0 mph

Today
High -- | Low -- °F
--% Chance of Precip.
Yesterday
High -- | Low -- °F
Precip. -- in
6:23 AM 5:53 PM
Full, 99% visible
Pressure 30.47 in
Visibility 10.0 miles
Clouds Clear
Windchill 26 °F
Dew Point 7 °F
Humidity 44%
Rainfall in
Snow Depth Not available.
UV 3 out of 12
Pollen .60 out of 12
Air Quality Not available.
Flu Activity Not available.
METAR KCDW 061953Z AUTO 00000KT 10SM CLR M04/M17 A3045 RMK AO2 SLP318 T10391172 TSNO

More Conditions Fewer Conditions

Pressure 30.47 in
Visibility 10.0 miles
Clouds Clear
Windchill 26 °F
Dew Point 7 °F
Humidity 44%
Rainfall in
Snow Depth Not available.
UV 3 out of 12
Pollen .60 out of 12
Air Quality Not available.
Flu Activity Not available.
METAR KCDW 061953Z AUTO 00000KT 10SM CLR M04/M17 A3045 RMK AO2 SLP318 T10391172 TSNO

More Conditions Fewer Conditions

10-Day Weather Forecast

Almanac

Astronomy

Mar. 06, 2015 Rise Set
Actual Time
Civil Twilight
Nautical Twilight
Astronomical Twilight
Moon
Length of Visible Light
Length of Day
Tomorrow will be .
, % of the Moon is Illuminated

Today's Extremes

State Highs State Lows

Community

WunderPhotos

Upload Photos

1,803,389 photos uploaded!

WunderBlogs® & News

Nearby

Air Quality

  Air Quality AQ Index Pollutant
Not available.

Snow Depth

Station Depth Elevation

Earthquake Activity

City Distance Mag. Time & Date
Minimum magnitude displayed is 2.5.

Coastal Water Temperatures

Place Temperature

Nearby Weather Stations